createdAt,value
2019-04-10T00:00:59.271Z,12.27
2019-04-10T00:03:33.667Z,12.33
2019-04-10T00:05:58.483Z,12.30
2019-04-10T00:08:27.031Z,12.12
2019-04-10T00:10:56.552Z,12.24
2019-04-10T00:13:25.554Z,12.18
2019-04-10T00:15:54.888Z,12.34
2019-04-10T00:18:24.152Z,12.26
2019-04-10T00:20:53.178Z,12.23
2019-04-10T00:23:22.702Z,12.33
2019-04-10T00:25:51.407Z,12.33
2019-04-10T00:28:20.284Z,12.38
2019-04-10T00:30:49.391Z,12.22
2019-04-10T00:33:18.846Z,12.25
2019-04-10T00:35:49.887Z,12.12
2019-04-10T00:38:19.772Z,12.26
2019-04-10T00:40:48.392Z,12.38
2019-04-10T00:43:17.079Z,12.21
2019-04-10T00:45:46.050Z,12.08
2019-04-10T00:48:15.507Z,12.10
2019-04-10T00:50:44.688Z,12.24
2019-04-10T00:53:13.339Z,12.28
2019-04-10T00:55:41.992Z,12.13
2019-04-10T00:58:10.589Z,12.12
2019-04-10T01:00:39.302Z,12.06
2019-04-10T01:03:08.083Z,12.01
2019-04-10T01:05:37.671Z,12.09
2019-04-10T01:08:06.684Z,12.17
2019-04-10T01:10:35.294Z,12.09
2019-04-10T01:13:04.903Z,12.16
2019-04-10T01:15:34.447Z,12.22
2019-04-10T01:18:03.174Z,12.18
2019-04-10T01:20:31.843Z,12.11
2019-04-10T01:23:00.524Z,12.19
2019-04-10T01:25:30.180Z,12.28
2019-04-10T01:27:59.021Z,12.19
2019-04-10T01:30:28.521Z,12.15
2019-04-10T01:32:57.070Z,12.23
2019-04-10T01:35:26.596Z,12.12
2019-04-10T01:38:00.472Z,12.17
2019-04-10T01:40:26.694Z,12.17
2019-04-10T01:43:09.998Z,12.21
2019-04-10T01:45:27.186Z,12.20
2019-04-10T01:47:55.852Z,12.21
2019-04-10T01:50:24.464Z,12.05
2019-04-10T01:52:53.466Z,12.00
2019-04-10T01:55:26.631Z,12.06
2019-04-10T01:57:52.724Z,12.01
2019-04-10T02:00:21.661Z,12.01
2019-04-10T02:02:56.682Z,11.94
2019-04-10T02:05:25.203Z,11.89
2019-04-10T02:08:05.197Z,11.84
2019-04-10T02:10:24.362Z,11.84
2019-04-10T02:12:53.088Z,11.89
2019-04-10T02:15:21.814Z,11.79
2019-04-10T02:17:50.296Z,11.77
2019-04-10T02:20:19.033Z,11.85
2019-04-10T02:22:48.014Z,11.75
2019-04-10T02:25:17.831Z,11.89
2019-04-10T02:27:46.827Z,11.90
2019-04-10T02:30:17.559Z,11.78
2019-04-10T02:32:48.218Z,11.75
2019-04-10T02:35:19.326Z,11.71
2019-04-10T02:37:52.153Z,11.73
2019-04-10T02:40:19.279Z,11.77
2019-04-10T02:42:49.285Z,11.76
2019-04-10T02:45:19.017Z,11.77
2019-04-10T02:47:47.758Z,11.75
2019-04-10T02:50:16.578Z,11.77
2019-04-10T02:52:46.040Z,11.68
2019-04-10T02:55:17.246Z,11.61
2019-04-10T02:57:47.303Z,11.74
2019-04-10T03:00:17.845Z,11.74
2019-04-10T03:02:47.892Z,11.75
2019-04-10T03:05:17.805Z,11.80
2019-04-10T03:07:48.192Z,11.65
2019-04-10T03:10:25.238Z,11.77
2019-04-10T03:12:48.432Z,11.71
2019-04-10T03:15:19.355Z,11.77
2019-04-10T03:17:48.362Z,11.69
2019-04-10T03:20:16.939Z,11.64
2019-04-10T03:22:45.495Z,11.71
2019-04-10T03:25:14.903Z,11.74
2019-04-10T03:27:44.788Z,11.57
2019-04-10T03:30:15.259Z,11.61
2019-04-10T03:33:06.398Z,11.72
2019-04-10T03:35:36.776Z,11.60
2019-04-10T03:38:05.745Z,11.65
2019-04-10T03:40:35.466Z,11.57
2019-04-10T03:43:04.134Z,11.53
2019-04-10T03:45:32.830Z,11.61
2019-04-10T03:48:02.029Z,11.57
2019-04-10T03:50:30.603Z,11.61
2019-04-10T03:53:00.190Z,11.64
2019-04-10T03:55:29.222Z,11.65
2019-04-10T03:57:58.708Z,11.67
2019-04-10T04:00:27.889Z,11.73
2019-04-10T04:02:56.561Z,11.68
2019-04-10T04:05:25.087Z,11.58
2019-04-10T04:07:53.603Z,11.67
2019-04-10T04:10:22.227Z,11.65
2019-04-10T04:12:51.003Z,11.72
2019-04-10T04:15:19.968Z,11.57
2019-04-10T04:17:48.721Z,11.63
2019-04-10T04:20:17.355Z,11.60
2019-04-10T04:22:46.132Z,11.63
2019-04-10T04:25:15.195Z,11.64
2019-04-10T04:27:44.208Z,11.62
2019-04-10T04:30:13.067Z,11.51
2019-04-10T04:32:42.114Z,11.50
2019-04-10T04:35:11.229Z,11.53
2019-04-10T04:37:40.158Z,11.66
2019-04-10T04:40:09.093Z,11.68
2019-04-10T04:42:38.602Z,11.64
2019-04-10T04:45:08.583Z,11.64
2019-04-10T04:47:37.466Z,11.62
2019-04-10T04:50:06.283Z,11.68
2019-04-10T04:52:35.008Z,11.76
2019-04-10T04:55:04.008Z,11.81
2019-04-10T04:57:34.253Z,11.71
2019-04-10T05:00:03.457Z,11.73
2019-04-10T05:02:32.360Z,11.61
2019-04-10T05:05:01.084Z,11.67
2019-04-10T05:07:29.741Z,11.62
2019-04-10T05:10:00.160Z,11.62
2019-04-10T05:12:28.769Z,11.69
2019-04-10T05:14:57.425Z,11.68
2019-04-10T05:17:25.982Z,11.69
2019-04-10T05:19:54.635Z,11.70
2019-04-10T05:22:24.407Z,11.67
2019-04-10T05:24:53.063Z,11.76
2019-04-10T05:27:22.591Z,11.76
2019-04-10T05:29:51.200Z,11.79
2019-04-10T05:32:19.878Z,11.71
2019-04-10T05:34:48.398Z,11.82
2019-04-10T05:37:17.061Z,11.83
2019-04-10T05:39:50.358Z,11.79
2019-04-10T05:42:16.860Z,11.78
2019-04-10T05:44:46.035Z,11.77
2019-04-10T05:47:14.478Z,11.80
2019-04-10T05:49:42.993Z,11.81
2019-04-10T05:52:12.591Z,11.73
2019-04-10T05:54:41.659Z,11.85
2019-04-10T05:57:10.418Z,11.83
2019-04-10T05:59:39.057Z,12.01
2019-04-10T06:02:08.039Z,11.92
2019-04-10T06:04:37.774Z,11.94
2019-04-10T06:07:06.409Z,11.81
2019-04-10T06:09:35.039Z,11.93
2019-04-10T06:12:05.102Z,11.88
2019-04-10T06:14:34.533Z,11.89
2019-04-10T06:17:04.267Z,11.84
2019-04-10T06:19:34.304Z,11.96
2019-04-10T06:22:03.280Z,11.96
2019-04-10T06:24:32.184Z,12.07
2019-04-10T06:27:01.909Z,11.99
2019-04-10T06:29:30.917Z,11.92
2019-04-10T06:31:59.482Z,11.88
2019-04-10T06:34:28.129Z,11.97
2019-04-10T06:36:57.734Z,11.97
2019-04-10T06:39:26.977Z,12.07
2019-04-10T06:41:56.084Z,11.99
2019-04-10T06:44:25.915Z,12.09
2019-04-10T06:46:55.007Z,12.16
2019-04-10T06:49:24.802Z,12.18
2019-04-10T06:51:53.618Z,12.12
2019-04-10T06:54:22.786Z,12.23
2019-04-10T06:56:52.508Z,12.18
2019-04-10T06:59:21.431Z,12.21
2019-04-10T07:01:54.545Z,12.18
2019-04-10T07:04:24.038Z,12.27
2019-04-10T07:06:58.587Z,12.31
2019-04-10T07:09:26.151Z,12.66
2019-04-10T07:11:56.830Z,12.39
2019-04-10T07:14:23.079Z,12.44
2019-04-10T07:16:52.713Z,12.40
2019-04-10T07:19:21.628Z,12.48
2019-04-10T07:21:51.166Z,12.41
2019-04-10T07:24:20.828Z,12.42
2019-04-10T07:26:50.923Z,12.37
2019-04-10T07:29:21.091Z,12.34
2019-04-10T07:31:50.908Z,12.44
2019-04-10T07:34:22.025Z,12.42
2019-04-10T07:36:50.280Z,12.48
2019-04-10T07:39:19.016Z,12.55
2019-04-10T07:41:49.864Z,12.61
2019-04-10T07:44:18.356Z,12.62
2019-04-10T07:46:47.026Z,12.69
2019-04-10T07:49:18.272Z,12.70
2019-04-10T07:51:47.718Z,12.68
2019-04-10T07:54:20.839Z,12.74
2019-04-10T07:56:47.327Z,12.82
2019-04-10T07:59:16.359Z,12.83
2019-04-10T08:01:44.988Z,12.81
2019-04-10T08:04:14.658Z,12.76
2019-04-10T08:06:44.619Z,12.77
2019-04-10T08:09:13.305Z,12.82
2019-04-10T08:11:42.539Z,12.81
2019-04-10T08:14:11.308Z,12.78
2019-04-10T08:16:39.955Z,12.75
2019-04-10T08:19:08.588Z,12.82
2019-04-10T08:21:38.083Z,12.95
2019-04-10T08:24:07.382Z,13.07
2019-04-10T08:26:36.700Z,13.04
2019-04-10T08:29:05.770Z,13.09
2019-04-10T08:31:34.439Z,13.08
2019-04-10T08:34:03.357Z,13.21
2019-04-10T08:36:31.978Z,13.18
2019-04-10T08:39:00.664Z,13.10
2019-04-10T08:41:29.694Z,13.11
2019-04-10T08:43:58.919Z,13.09
2019-04-10T08:46:28.155Z,13.12
2019-04-10T08:48:58.004Z,13.06
2019-04-10T08:51:27.705Z,13.19
2019-04-10T08:53:56.873Z,13.17
2019-04-10T08:56:25.546Z,13.14
2019-04-10T08:58:55.080Z,13.15
2019-04-10T09:01:23.770Z,13.16
2019-04-10T09:03:52.428Z,13.13
2019-04-10T09:06:21.060Z,13.21
2019-04-10T09:08:50.856Z,13.21
2019-04-10T09:11:26.220Z,13.24
2019-04-10T09:13:50.066Z,13.19
2019-04-10T09:16:18.547Z,13.26
2019-04-10T09:18:47.617Z,13.21
2019-04-10T09:21:17.439Z,13.22
2019-04-10T09:23:52.374Z,13.28
2019-04-10T09:26:16.689Z,13.26
2019-04-10T09:28:45.197Z,13.32
2019-04-10T09:31:13.749Z,13.28
2019-04-10T09:33:43.232Z,13.29
2019-04-10T09:36:11.868Z,13.29
2019-04-10T09:38:41.015Z,13.32
2019-04-10T09:41:10.031Z,13.32
2019-04-10T09:43:38.588Z,13.29
2019-04-10T09:46:07.124Z,13.29
2019-04-10T09:48:35.921Z,13.30
2019-04-10T09:51:05.447Z,13.34
2019-04-10T09:53:35.183Z,13.34
2019-04-10T09:56:03.757Z,13.35
2019-04-10T09:58:32.374Z,13.25
2019-04-10T10:01:01.683Z,13.28
2019-04-10T10:03:32.433Z,13.29
2019-04-10T10:06:01.778Z,13.29
2019-04-10T10:08:31.626Z,13.34
2019-04-10T10:11:00.375Z,13.35
2019-04-10T10:13:29.700Z,13.36
2019-04-10T10:15:58.731Z,13.36
2019-04-10T10:18:27.736Z,13.39
2019-04-10T10:20:56.471Z,13.42
2019-04-10T10:23:25.611Z,13.44
2019-04-10T10:25:55.328Z,13.38
2019-04-10T10:28:24.111Z,13.40
2019-04-10T10:30:52.660Z,13.46
2019-04-10T10:33:21.655Z,13.51
2019-04-10T10:35:51.456Z,13.57
2019-04-10T10:38:21.153Z,13.58
2019-04-10T10:40:50.791Z,14.68
2019-04-10T10:43:20.501Z,15.23
2019-04-10T10:45:49.253Z,14.82
2019-04-10T10:48:18.022Z,14.16
2019-04-10T10:50:47.667Z,14.11
2019-04-10T10:53:16.482Z,14.05
2019-04-10T10:55:45.527Z,14.04
2019-04-10T10:58:15.376Z,14.04
2019-04-10T11:00:44.247Z,14.02
2019-04-10T11:03:13.951Z,14.06
2019-04-10T11:05:42.793Z,14.06
2019-04-10T11:08:11.721Z,14.17
2019-04-10T11:10:41.321Z,14.53
2019-04-10T11:13:10.918Z,14.57
2019-04-10T11:15:43.669Z,14.44
2019-04-10T11:18:10.313Z,14.50
2019-04-10T11:20:39.427Z,14.62
2019-04-10T11:23:09.414Z,14.73
2019-04-10T11:25:38.279Z,14.74
2019-04-10T11:28:07.673Z,14.69
2019-04-10T11:30:36.643Z,14.78
2019-04-10T11:33:06.190Z,14.75
2019-04-10T11:35:35.064Z,14.77
2019-04-10T11:38:05.746Z,14.92
2019-04-10T11:40:35.022Z,14.84
2019-04-10T11:43:05.345Z,14.79
2019-04-10T11:48:06.058Z,14.91
2019-04-10T11:50:34.899Z,14.84
2019-04-10T11:53:04.519Z,14.76
2019-04-10T11:55:43.087Z,14.83
2019-04-10T11:58:05.384Z,14.86
2019-04-10T12:00:47.306Z,14.89
2019-04-10T12:03:10.528Z,14.87
2019-04-10T12:05:41.121Z,14.85
2019-04-10T12:13:12.778Z,14.93
2019-04-10T12:15:43.145Z,14.94
2019-04-10T12:18:12.200Z,15.03
2019-04-10T12:20:41.052Z,15.05
2019-04-10T12:23:10.400Z,15.08
2019-04-10T12:25:39.113Z,14.94
2019-04-10T12:28:07.749Z,14.99
2019-04-10T12:30:37.461Z,15.10
2019-04-10T12:33:06.004Z,15.11
2019-04-10T12:35:34.662Z,15.07
2019-04-10T12:38:08.119Z,15.07
2019-04-10T12:40:35.151Z,15.06
2019-04-10T12:43:05.311Z,15.03
2019-04-10T12:45:34.343Z,14.96
2019-04-10T12:48:04.129Z,14.96
2019-04-10T12:50:33.250Z,14.96
2019-04-10T12:53:03.016Z,15.03
2019-04-10T12:55:32.529Z,15.01
2019-04-10T12:58:08.610Z,15.05
2019-04-10T13:00:32.125Z,15.09
2019-04-10T13:03:00.944Z,15.02
2019-04-10T13:05:29.558Z,15.14
2019-04-10T13:08:06.434Z,15.18
2019-04-10T13:10:29.479Z,15.15
2019-04-10T13:12:58.256Z,15.18
2019-04-10T13:15:27.611Z,15.19
2019-04-10T13:17:57.431Z,15.20
2019-04-10T13:20:27.125Z,15.23
2019-04-10T13:22:56.284Z,15.23
2019-04-10T13:25:25.959Z,15.23
2019-04-10T13:27:54.957Z,15.53
2019-04-10T13:30:23.646Z,15.47
2019-04-10T13:32:52.449Z,15.46
2019-04-10T13:35:22.011Z,15.54
2019-04-10T13:37:50.727Z,15.36
2019-04-10T13:40:19.531Z,15.31
2019-04-10T13:42:49.459Z,15.23
2019-04-10T13:45:19.304Z,15.33
2019-04-10T13:47:48.514Z,15.39
2019-04-10T13:50:18.913Z,15.43
2019-04-10T13:52:52.226Z,15.33
2019-04-10T13:55:20.893Z,15.18
2019-04-10T13:57:49.547Z,15.31
2019-04-10T14:00:45.056Z,15.47
2019-04-10T14:03:14.922Z,15.51
2019-04-10T14:05:43.526Z,15.40
2019-04-10T14:08:12.598Z,15.36
2019-04-10T14:10:41.941Z,15.65
2019-04-10T14:13:11.484Z,15.65
2019-04-10T14:15:40.345Z,15.29
2019-04-10T14:18:10.169Z,15.53
2019-04-10T14:20:39.511Z,15.59
2019-04-10T14:23:26.650Z,15.48
2019-04-10T14:26:22.263Z,15.48
2019-04-10T14:28:51.537Z,15.23
2019-04-10T14:31:24.674Z,15.17
2019-04-10T14:33:53.328Z,14.99
2019-04-10T14:36:22.396Z,15.06
2019-04-10T14:38:51.610Z,14.67
2019-04-10T14:41:20.370Z,14.78
2019-04-10T14:43:50.136Z,14.45
2019-04-10T14:46:18.878Z,14.14
2019-04-10T14:48:48.643Z,14.00
2019-04-10T14:51:18.339Z,13.91
2019-04-10T14:53:47.018Z,13.79
2019-04-10T14:56:15.714Z,13.71
2019-04-10T14:58:44.652Z,13.81
2019-04-10T15:01:13.620Z,13.88
2019-04-10T15:03:42.472Z,13.76
2019-04-10T15:06:11.410Z,13.56
2019-04-10T15:08:40.129Z,13.50
2019-04-10T15:11:08.883Z,13.60
2019-04-10T15:13:38.079Z,13.53
2019-04-10T15:16:07.257Z,13.40
2019-04-10T15:18:35.834Z,13.56
2019-04-10T15:21:04.907Z,13.41
2019-04-10T15:23:33.868Z,13.18
2019-04-10T15:26:03.867Z,13.43
2019-04-10T15:28:33.826Z,13.46
2019-04-10T15:31:03.420Z,13.32
2019-04-10T15:33:32.681Z,13.42
2019-04-10T15:36:01.959Z,13.52
2019-04-10T15:38:30.939Z,13.99
2019-04-10T15:40:59.476Z,13.56
2019-04-10T15:43:29.339Z,13.48
2019-04-10T15:45:58.250Z,13.34
2019-04-10T15:48:27.156Z,13.28
2019-04-10T15:50:56.067Z,13.64
2019-04-10T15:53:24.621Z,13.66
2019-04-10T15:55:53.787Z,13.69
2019-04-10T15:58:23.445Z,13.70
2019-04-10T16:00:52.470Z,13.69
2019-04-10T16:03:21.845Z,13.65
2019-04-10T16:05:50.419Z,13.60
2019-04-10T16:08:20.459Z,13.54
2019-04-10T16:11:07.662Z,13.60
2019-04-10T16:13:42.279Z,13.68
2019-04-10T16:16:32.187Z,13.70
2019-04-10T16:19:22.996Z,13.74
2019-04-10T16:21:52.184Z,13.78
2019-04-10T16:24:20.895Z,13.77
2019-04-10T16:26:49.776Z,13.65
2019-04-10T16:29:18.238Z,13.52
2019-04-10T16:31:47.998Z,13.39
2019-04-10T16:34:17.720Z,13.54
2019-04-10T16:36:46.281Z,13.55
2019-04-10T16:39:17.582Z,13.60
2019-04-10T16:41:46.257Z,13.58
2019-04-10T16:44:15.109Z,13.55
2019-04-10T16:46:44.793Z,13.43
2019-04-10T16:49:27.367Z,13.52
2019-04-10T16:51:56.696Z,13.67
2019-04-10T16:54:25.532Z,13.61
2019-04-10T16:57:00.379Z,13.50
2019-04-10T16:59:30.024Z,13.40
2019-04-10T17:02:00.279Z,13.33
2019-04-10T17:04:29.848Z,13.44
2019-04-10T17:06:58.837Z,13.48
2019-04-10T17:09:28.901Z,13.39
2019-04-10T17:11:58.716Z,13.25
2019-04-10T17:14:27.402Z,13.37
2019-04-10T17:16:55.891Z,13.49
2019-04-10T17:19:24.654Z,13.49
2019-04-10T17:21:54.285Z,13.63
2019-04-10T17:24:22.971Z,13.47
2019-04-10T17:26:51.607Z,13.39
2019-04-10T17:29:20.879Z,13.38
2019-04-10T17:31:50.670Z,13.33
2019-04-10T17:34:20.710Z,13.14
2019-04-10T17:36:49.741Z,13.12
2019-04-10T17:39:19.619Z,13.28
2019-04-10T17:41:48.554Z,13.42
2019-04-10T17:44:17.943Z,13.25
2019-04-10T17:46:47.050Z,13.08
2019-04-10T17:49:17.013Z,13.10
2019-04-10T17:51:46.457Z,13.06
2019-04-10T17:54:15.374Z,13.08
2019-04-10T17:56:44.413Z,13.05
2019-04-10T17:59:14.196Z,13.03
2019-04-10T18:01:43.234Z,13.04
2019-04-10T18:04:12.000Z,13.12
2019-04-10T18:06:43.909Z,13.21
2019-04-10T18:09:11.753Z,13.27
2019-04-10T18:11:41.556Z,13.23
2019-04-10T18:14:11.168Z,13.16
2019-04-10T18:16:40.146Z,13.23
2019-04-10T18:19:08.807Z,13.10
2019-04-10T18:21:37.745Z,12.87
2019-04-10T18:24:06.468Z,12.88
2019-04-10T18:26:36.142Z,12.98
2019-04-10T18:29:05.798Z,13.02
2019-04-10T18:31:34.797Z,13.04
2019-04-10T18:34:07.085Z,13.14
2019-04-10T18:36:34.206Z,13.27
2019-04-10T18:39:06.030Z,13.23
2019-04-10T18:41:36.068Z,13.00
2019-04-10T18:44:04.837Z,12.91
2019-04-10T18:46:34.016Z,12.87
2019-04-10T18:49:03.144Z,12.93
2019-04-10T18:51:32.101Z,12.94
2019-04-10T18:54:01.722Z,12.89
2019-04-10T18:56:31.355Z,12.95
2019-04-10T18:59:10.263Z,12.91
2019-04-10T19:01:51.304Z,13.05
2019-04-10T19:04:32.719Z,12.98
2019-04-10T19:07:02.350Z,12.95
2019-04-10T19:09:35.239Z,13.01
2019-04-10T19:12:04.535Z,13.05
2019-04-10T19:17:08.940Z,12.94
2019-04-10T19:19:40.412Z,12.92
2019-04-10T19:22:09.906Z,13.05
2019-04-10T19:24:39.355Z,13.22
2019-04-10T19:27:08.090Z,13.18
2019-04-10T19:29:36.759Z,13.07
2019-04-10T19:32:07.987Z,13.11
2019-04-10T19:34:37.241Z,13.20
2019-04-10T19:37:06.278Z,13.15
2019-04-10T19:39:35.115Z,13.18
2019-04-10T19:42:04.992Z,13.05
2019-04-10T19:44:35.042Z,13.00
2019-04-10T19:47:04.294Z,12.91
2019-04-10T19:49:32.970Z,12.98
2019-04-10T19:52:02.325Z,13.07
2019-04-10T19:54:31.585Z,13.02
2019-04-10T19:57:01.343Z,13.11
2019-04-10T19:59:30.024Z,12.96
2019-04-10T20:01:58.757Z,12.97
2019-04-10T20:04:28.402Z,12.93
2019-04-10T20:06:57.491Z,13.02
2019-04-10T20:09:26.413Z,12.85
2019-04-10T20:11:57.189Z,12.92
2019-04-10T20:14:25.559Z,12.89
2019-04-10T20:16:54.087Z,12.95
2019-04-10T20:19:22.727Z,12.93
2019-04-10T20:21:52.415Z,12.91
2019-04-10T20:24:21.334Z,12.88
2019-04-10T20:26:50.065Z,12.85
2019-04-10T20:29:19.202Z,12.72
2019-04-10T20:31:49.814Z,12.87
2019-04-10T20:34:19.131Z,12.92
2019-04-10T20:36:49.011Z,12.87
2019-04-10T20:39:18.044Z,12.78
2019-04-10T20:41:52.340Z,12.80
2019-04-10T20:44:18.649Z,12.76
2019-04-10T20:46:48.578Z,12.69
2019-04-10T20:49:18.401Z,12.73
2019-04-10T20:51:47.707Z,12.88
2019-04-10T20:54:17.479Z,12.58
2019-04-10T20:56:46.554Z,12.65
2019-04-10T20:59:15.541Z,12.72
2019-04-10T21:01:44.905Z,12.85
2019-04-10T21:04:13.542Z,12.89
2019-04-10T21:06:43.599Z,12.94
2019-04-10T21:09:12.367Z,12.81
2019-04-10T21:11:41.806Z,12.84
2019-04-10T21:14:12.179Z,12.82
2019-04-10T21:16:42.155Z,12.70
2019-04-10T21:19:11.182Z,12.76
2019-04-10T21:21:39.901Z,12.78
2019-04-10T21:24:09.233Z,12.85
2019-04-10T21:26:38.806Z,12.84
2019-04-10T21:29:11.079Z,12.83
2019-04-10T21:31:50.635Z,12.75
2019-04-10T21:34:24.563Z,12.51
2019-04-10T21:36:53.399Z,12.49
2019-04-10T21:39:22.175Z,12.61
2019-04-10T21:41:50.577Z,12.52
2019-04-10T21:44:20.301Z,12.66
2019-04-10T21:46:49.060Z,12.68
2019-04-10T21:49:17.714Z,12.66
2019-04-10T21:51:46.404Z,12.73
2019-04-10T21:54:15.111Z,12.70
2019-04-10T21:56:43.667Z,12.63
2019-04-10T21:59:13.385Z,12.72
2019-04-10T22:01:42.929Z,12.54
2019-04-10T22:04:11.626Z,12.58
2019-04-10T22:06:54.056Z,12.63
2019-04-10T22:09:41.062Z,12.67
2019-04-10T22:12:25.940Z,12.66
2019-04-10T22:14:48.907Z,12.67
2019-04-10T22:17:17.506Z,12.53
2019-04-10T22:19:47.293Z,12.46
2019-04-10T22:22:16.178Z,12.44
2019-04-10T22:24:44.677Z,12.43
2019-04-10T22:27:13.318Z,12.45
2019-04-10T22:29:42.685Z,12.58
2019-04-10T22:32:11.337Z,12.53
2019-04-10T22:34:39.888Z,12.55
2019-04-10T22:37:08.478Z,12.50
2019-04-10T22:39:36.922Z,12.43
2019-04-10T22:42:05.540Z,12.23
2019-04-10T22:44:40.236Z,12.46
2019-04-10T22:47:05.055Z,12.56
2019-04-10T22:49:34.883Z,12.46
2019-04-10T22:52:04.691Z,12.49
2019-04-10T22:54:34.402Z,12.55
2019-04-10T22:57:03.245Z,12.54
2019-04-10T22:59:32.647Z,12.48
2019-04-10T23:02:07.274Z,12.45
2019-04-10T23:04:32.810Z,12.45
2019-04-10T23:07:01.803Z,12.45
2019-04-10T23:09:30.635Z,12.35
2019-04-10T23:12:00.178Z,12.50
2019-04-10T23:14:29.023Z,12.53
2019-04-10T23:16:57.582Z,12.46
2019-04-10T23:19:26.079Z,12.40
2019-04-10T23:21:54.669Z,12.40
2019-04-10T23:24:23.477Z,12.24
2019-04-10T23:26:53.313Z,12.40
2019-04-10T23:29:22.355Z,12.28
2019-04-10T23:31:51.978Z,12.32
2019-04-10T23:34:20.906Z,12.42
2019-04-10T23:36:50.747Z,12.47
2019-04-10T23:39:19.756Z,12.48
2019-04-10T23:41:50.895Z,12.51
2019-04-10T23:44:18.790Z,12.43
2019-04-10T23:46:47.481Z,12.50
2019-04-10T23:49:17.150Z,12.53
2019-04-10T23:51:46.141Z,12.51
2019-04-10T23:54:15.202Z,12.51
2019-04-10T23:56:45.601Z,12.49
2019-04-10T23:59:14.962Z,12.46
